Time;durP1;ratioP1;P1;durP2;ratioP2;P2;SDS_P1;SDS_P2;PMS_P1;PMS_P2;Temp;Humidity;BMP_temperature;BMP_pressure;BME280_temperature;BME280_humidity;BME280_pressure;Samples;Min_cycle;Max_cycle;Signal;HPM_P1;HPM_P2
2023/05/11 00:04:39;;;;;;;23.85;14.57;;;;;;;11.93;100.00;101435.69;10322532;28;20034;-82
2023/05/11 00:09:40;;;;;;;20.58;14.43;;;;;;;11.97;100.00;101438.91;10338494;28;20066;-80
2023/05/11 00:14:40;;;;;;;22.38;15.52;;;;;;;12.03;100.00;101435.41;10321621;28;20050;-81
2023/05/11 00:19:41;;;;;;;20.88;13.05;;;;;;;12.04;100.00;101435.19;10328652;28;20158;-80
2023/05/11 00:24:41;;;;;;;21.08;14.93;;;;;;;12.09;100.00;101426.47;10323625;28;20116;-82
2023/05/11 00:29:42;;;;;;;22.88;14.73;;;;;;;12.16;100.00;101434.69;10338242;28;20034;-83
2023/05/11 00:34:42;;;;;;;16.55;11.82;;;;;;;12.19;100.00;101436.97;10304128;28;20140;-79
2023/05/11 00:39:43;;;;;;;21.88;15.65;;;;;;;12.19;100.00;101429.72;10319858;28;20041;-81
2023/05/11 00:44:45;;;;;;;17.35;13.80;;;;;;;12.24;100.00;101435.38;10319959;28;20038;-83
2023/05/11 00:49:45;;;;;;;18.90;13.85;;;;;;;12.27;100.00;101437.69;10320663;28;20088;-80
2023/05/11 00:54:46;;;;;;;19.92;16.05;;;;;;;12.26;100.00;101438.75;10311280;28;20474;-82
2023/05/11 00:59:48;;;;;;;20.90;15.55;;;;;;;12.22;100.00;101448.31;10319718;28;20109;-81
2023/05/11 01:04:48;;;;;;;34.53;17.83;;;;;;;12.21;100.00;101441.19;10320329;28;20038;-81
2023/05/11 01:10:04;;;;;;;26.35;18.25;;;;;;;12.13;100.00;101438.63;10303196;28;20065;-82
2023/05/11 01:15:11;;;;;;;23.00;15.95;;;;;;;12.12;100.00;101436.94;10335176;28;20108;-81
2023/05/11 01:20:20;;;;;;;25.52;18.60;;;;;;;12.10;100.00;101433.59;10333181;28;20105;-81
2023/05/11 01:25:31;;;;;;;31.40;20.13;;;;;;;12.07;100.00;101440.25;10319765;28;20054;-81
2023/05/11 01:30:54;;;;;;;27.23;16.10;;;;;;;12.10;100.00;101431.72;10318825;28;20441;-81
2023/05/11 01:35:55;;;;;;;21.15;15.73;;;;;;;12.13;100.00;101437.78;10319415;28;20122;-82
2023/05/11 01:40:57;;;;;;;26.83;17.20;;;;;;;12.16;100.00;101438.25;10334330;28;20047;-81
2023/05/11 01:45:59;;;;;;;26.42;17.42;;;;;;;12.19;100.00;101439.69;10301412;28;20041;-81
2023/05/11 01:51:00;;;;;;;23.05;16.65;;;;;;;12.25;100.00;101436.22;10317145;28;20386;-81
2023/05/11 01:56:01;;;;;;;23.60;15.88;;;;;;;12.24;100.00;101446.22;10320945;28;20089;-82
2023/05/11 02:01:02;;;;;;;27.30;16.48;;;;;;;12.23;100.00;101444.56;10323120;28;20537;-81
2023/05/11 02:06:04;;;;;;;20.40;16.90;;;;;;;12.24;100.00;101443.50;10334815;28;20385;-80
2023/05/11 02:11:07;;;;;;;22.08;16.80;;;;;;;12.23;100.00;101447.28;10316548;28;20038;-81
2023/05/11 02:16:07;;;;;;;25.70;17.38;;;;;;;12.19;100.00;101447.84;10316037;28;20061;-81
2023/05/11 02:21:08;;;;;;;22.58;16.38;;;;;;;12.16;100.00;101449.09;10300463;28;20054;-82
2023/05/11 02:26:08;;;;;;;24.58;18.10;;;;;;;12.19;100.00;101454.16;10341091;28;20073;-81
2023/05/11 02:31:11;;;;;;;22.42;18.23;;;;;;;12.13;100.00;101449.50;10335983;28;20124;-80
2023/05/11 02:36:18;;;;;;;22.25;16.20;;;;;;;12.15;100.00;101452.00;10349393;28;20029;-81
2023/05/11 02:41:21;;;;;;;23.42;17.02;;;;;;;12.13;100.00;101446.78;10348421;28;20072;-80
2023/05/11 02:46:25;;;;;;;24.17;18.23;;;;;;;12.14;100.00;101459.31;10349225;28;20044;-80
2023/05/11 02:51:36;;;;;;;29.60;18.20;;;;;;;12.13;100.00;101449.50;10348659;28;20033;-81
2023/05/11 02:56:37;;;;;;;26.65;17.45;;;;;;;12.15;100.00;101460.13;10365812;28;20437;-81
2023/05/11 03:01:38;;;;;;;20.45;14.73;;;;;;;12.14;100.00;101451.16;10352148;28;20080;-81
2023/05/11 03:06:40;;;;;;;27.60;16.98;;;;;;;12.13;100.00;101451.38;10352092;28;20041;-81
2023/05/11 03:11:41;;;;;;;32.70;19.15;;;;;;;12.13;100.00;101448.66;10348378;28;20121;-81
2023/05/11 03:16:42;;;;;;;29.58;18.80;;;;;;;12.13;100.00;101449.50;10347561;28;20042;-82
2023/05/11 03:21:42;;;;;;;29.30;18.35;;;;;;;12.15;100.00;101452.81;10347243;28;20089;-80
2023/05/11 03:26:43;;;;;;;26.88;18.83;;;;;;;12.18;100.00;101447.00;10364185;28;20080;-82
2023/05/11 03:31:43;;;;;;;32.03;20.20;;;;;;;12.16;100.00;101459.97;10347034;28;20485;-82
2023/05/11 03:36:44;;;;;;;29.48;18.77;;;;;;;12.16;100.00;101445.56;10362233;28;20112;-82
2023/05/11 03:41:45;;;;;;;31.85;21.98;;;;;;;12.17;100.00;101445.34;10362456;28;20109;-82
2023/05/11 03:46:46;;;;;;;29.48;19.73;;;;;;;12.13;100.00;101438.63;10329650;28;20164;-81
2023/05/11 03:51:47;;;;;;;34.33;21.10;;;;;;;12.10;100.00;101442.56;10346563;28;20067;-81
2023/05/11 03:56:47;;;;;;;30.38;19.23;;;;;;;12.09;100.00;101437.31;10345853;28;20160;-81
2023/05/11 04:01:51;;;;;;;33.35;19.80;;;;;;;12.11;100.00;101437.97;10346019;28;20066;-81
2023/05/11 04:06:52;;;;;;;31.70;22.73;;;;;;;12.12;100.00;101434.22;10351131;28;20034;-82
2023/05/11 04:11:53;;;;;;;33.30;21.20;;;;;;;12.13;100.00;101435.06;10383420;28;20056;-82
2023/05/11 04:16:53;;;;;;;33.15;19.63;;;;;;;12.16;100.00;101437.41;10362203;28;20339;-82
2023/05/11 04:21:54;;;;;;;40.97;21.20;;;;;;;12.18;100.00;101436.16;10344458;28;20401;-80
2023/05/11 04:26:55;;;;;;;32.35;21.67;;;;;;;12.21;100.00;101440.34;10345479;28;20133;-80
2023/05/11 04:31:55;;;;;;;32.97;20.67;;;;;;;12.26;100.00;101448.78;10273428;28;20153;-78
2023/05/11 04:36:56;;;;;;;33.63;21.25;;;;;;;12.29;100.00;101445.66;10361641;28;20117;-82
2023/05/11 04:41:58;;;;;;;35.78;20.65;;;;;;;12.33;100.00;101445.06;10371895;28;20029;-81
2023/05/11 04:46:58;;;;;;;35.50;21.40;;;;;;;12.40;100.00;101450.56;10345602;28;20042;-82
2023/05/11 04:51:59;;;;;;;30.58;21.42;;;;;;;12.45;100.00;101453.53;10380413;28;20108;-79
2023/05/11 04:57:02;;;;;;;33.45;19.85;;;;;;;12.45;100.00;101452.69;10344646;28;20511;-79
2023/05/11 05:02:03;;;;;;;36.28;21.58;;;;;;;12.43;100.00;101458.31;10343323;28;20547;-79
2023/05/11 05:07:03;;;;;;;38.30;20.95;;;;;;;12.48;100.00;101464.00;10343840;28;20067;-83
2023/05/11 05:12:04;;;;;;;32.80;22.60;;;;;;;12.61;100.00;101467.88;10351248;28;20030;-81
2023/05/11 05:17:05;;;;;;;37.83;24.08;;;;;;;12.65;100.00;101483.56;10361857;28;20073;-80
2023/05/11 05:22:05;;;;;;;33.33;22.23;;;;;;;12.64;100.00;101490.03;10341434;28;20065;-81
2023/05/11 05:27:05;;;;;;;43.05;25.73;;;;;;;12.59;100.00;101487.06;10377028;28;20465;-80
2023/05/11 05:32:06;;;;;;;41.03;24.10;;;;;;;12.57;100.00;101491.84;10374760;28;20064;-77
2023/05/11 05:37:06;;;;;;;51.00;24.02;;;;;;;12.63;100.00;101509.25;10325114;28;20029;-77
2023/05/11 05:42:07;;;;;;;33.30;22.38;;;;;;;12.65;100.00;101507.19;10375797;28;20037;-76
2023/05/11 05:47:07;;;;;;;39.88;21.55;;;;;;;12.63;100.00;101514.69;10376144;28;20168;-79
2023/05/11 05:52:09;;;;;;;32.90;21.30;;;;;;;12.63;100.00;101514.69;10324483;28;20500;-79
2023/05/11 05:57:11;;;;;;;33.85;21.92;;;;;;;12.64;100.00;101514.50;10357539;28;20049;-80
2023/05/11 06:02:12;;;;;;;37.42;24.38;;;;;;;12.71;100.00;101522.72;10342070;28;20037;-80
2023/05/11 06:07:13;;;;;;;37.67;24.00;;;;;;;12.82;100.00;101524.03;10339965;28;20044;-80
2023/05/11 06:12:14;;;;;;;37.95;24.23;;;;;;;12.83;100.00;101526.56;10375250;28;20041;-81
2023/05/11 06:17:16;;;;;;;37.50;22.80;;;;;;;12.81;100.00;101534.06;10332229;28;20030;-81
2023/05/11 06:22:17;;;;;;;34.58;21.98;;;;;;;12.85;100.00;101531.81;10340720;28;20076;-82
2023/05/11 06:27:17;;;;;;;42.10;22.23;;;;;;;12.95;100.00;101535.00;10355972;28;20440;-82
2023/05/11 06:32:17;;;;;;;34.22;21.50;;;;;;;13.04;100.00;101536.53;10341538;28;20046;-81
2023/05/11 06:37:21;;;;;;;41.55;23.38;;;;;;;13.19;100.00;101536.44;10339996;28;20034;-82
2023/05/11 06:42:22;;;;;;;37.33;22.88;;;;;;;13.26;100.00;101521.03;10357979;28;20109;-82
2023/05/11 06:47:23;;;;;;;34.50;23.90;;;;;;;13.47;100.00;101531.00;10324741;28;20120;-81
2023/05/11 06:52:23;;;;;;;32.78;23.63;;;;;;;13.67;100.00;101528.38;10347986;28;20092;-82
2023/05/11 06:57:25;;;;;;;44.33;24.15;;;;;;;13.81;100.00;101535.53;10356689;28;20040;-81
2023/05/11 07:02:26;;;;;;;50.70;25.92;;;;;;;13.98;100.00;101536.03;10340146;28;20042;-81
2023/05/11 07:07:27;;;;;;;45.50;27.13;;;;;;;14.13;100.00;101538.56;10356445;28;20057;-82
2023/05/11 07:12:28;;;;;;;49.28;26.50;;;;;;;14.16;100.00;101540.88;10355543;28;20482;-81
2023/05/11 07:17:29;;;;;;;43.63;26.67;;;;;;;14.10;100.00;101539.84;10355673;28;20030;-81
2023/05/11 07:22:31;;;;;;;40.80;22.98;;;;;;;14.12;100.00;101551.34;10353331;28;20113;-82
2023/05/11 07:27:33;;;;;;;36.80;22.50;;;;;;;14.15;100.00;101550.94;10362875;28;20104;-81
2023/05/11 07:32:34;;;;;;;33.72;23.13;;;;;;;14.04;100.00;101559.72;10380407;28;20038;-81
2023/05/11 07:37:34;;;;;;;37.65;20.90;;;;;;;13.84;100.00;101558.78;10329787;28;20030;-81
2023/05/11 07:42:35;;;;;;;34.83;21.05;;;;;;;13.68;100.00;101558.09;10345810;28;20477;-81
2023/05/11 07:47:35;;;;;;;34.97;23.48;;;;;;;13.91;100.00;101562.38;10329768;28;20085;-81
2023/05/11 07:52:35;;;;;;;37.13;25.25;;;;;;;14.18;100.00;101552.44;10346522;28;20057;-81
2023/05/11 07:57:36;;;;;;;33.55;20.88;;;;;;;15.07;100.00;101552.13;10362283;28;20036;-82
2023/05/11 08:02:36;;;;;;;39.58;24.67;;;;;;;16.88;100.00;101547.53;10379395;28;20507;-82
2023/05/11 08:07:37;;;;;;;26.60;19.70;;;;;;;19.04;100.00;101543.28;10379430;28;20045;-83
2023/05/11 08:12:37;;;;;;;27.15;16.50;;;;;;;19.53;100.00;101554.03;10330381;28;20042;-82
2023/05/11 08:17:38;;;;;;;21.45;13.80;;;;;;;18.67;100.00;101556.34;10360630;28;20087;-82
2023/05/11 08:22:38;;;;;;;24.40;14.73;;;;;;;18.03;100.00;101563.41;10328078;28;20034;-82
2023/05/11 08:27:39;;;;;;;25.33;16.48;;;;;;;19.25;100.00;101561.06;10351851;28;20085;-83
2023/05/11 08:32:39;;;;;;;26.40;15.15;;;;;;;18.46;100.00;101559.63;10359840;28;20083;-82
2023/05/11 08:37:41;;;;;;;23.27;14.05;;;;;;;17.87;100.00;101557.47;10344256;28;20121;-84
2023/05/11 08:42:41;;;;;;;26.75;14.52;;;;;;;17.61;100.00;101558.63;10360254;28;20109;-83
2023/05/11 08:47:42;;;;;;;14.90;12.52;;;;;;;17.68;100.00;101564.00;10361157;28;20040;-83
2023/05/11 08:52:42;;;;;;;24.77;14.52;;;;;;;17.82;100.00;101561.97;10343381;28;20358;-84
2023/05/11 08:57:44;;;;;;;29.17;15.32;;;;;;;18.02;100.00;101556.22;10365468;28;20057;-84
2023/05/11 09:02:45;;;;;;;13.45;11.40;;;;;;;18.14;100.00;101554.38;10364557;28;20050;-83
2023/05/11 09:07:46;;;;;;;19.83;13.60;;;;;;;18.15;100.00;101561.53;10328913;28;20037;-83
2023/05/11 09:12:46;;;;;;;14.73;11.85;;;;;;;18.54;100.00;101562.88;10344369;28;20625;-82
2023/05/11 09:17:46;;;;;;;18.60;12.18;;;;;;;18.90;100.00;101571.22;10377614;28;20121;-83
2023/05/11 09:22:47;;;;;;;12.18;10.05;;;;;;;18.53;100.00;101566.66;10380374;28;20100;-82
2023/05/11 09:27:47;;;;;;;19.95;10.20;;;;;;;18.45;100.00;101575.25;10346900;28;20054;-83
2023/05/11 09:32:58;;;;;;;19.25;12.93;;;;;;;18.63;100.00;101557.88;10386006;28;20038;-82
2023/05/11 09:38:09;;;;;;;16.83;11.43;;;;;;;19.29;100.00;101553.19;10364077;28;20052;-82
2023/05/11 09:43:21;;;;;;;18.55;11.43;;;;;;;18.83;100.00;101559.50;10360491;28;20034;-82
2023/05/11 09:48:27;;;;;;;17.33;11.52;;;;;;;17.93;100.00;101566.66;10343164;28;20030;-82
2023/05/11 09:53:42;;;;;;;21.52;13.32;;;;;;;17.14;100.00;101565.63;10326379;28;20038;-83
2023/05/11 09:58:54;;;;;;;18.58;14.88;;;;;;;16.78;100.00;101571.81;10357118;28;20473;-83
2023/05/11 10:03:54;;;;;;;25.40;14.63;;;;;;;16.48;100.00;101572.41;10358478;28;20129;-82
2023/05/11 10:08:54;;;;;;;20.75;13.68;;;;;;;16.50;100.00;101571.16;10343072;28;20491;-83
2023/05/11 10:13:55;;;;;;;22.13;15.18;;;;;;;16.37;100.00;101576.72;10340560;28;20046;-83
2023/05/11 10:18:55;;;;;;;22.15;14.63;;;;;;;16.38;100.00;101572.91;10341220;28;20030;-83
2023/05/11 10:23:56;;;;;;;16.00;14.00;;;;;;;16.32;100.00;101578.41;10360158;28;20129;-82
2023/05/11 10:29:01;;;;;;;22.88;13.43;;;;;;;16.12;100.00;101581.25;10341920;28;20026;-83
2023/05/11 10:34:08;;;;;;;22.67;14.70;;;;;;;16.11;100.00;101582.28;10386661;28;20049;-83
2023/05/11 10:39:08;;;;;;;28.35;14.65;;;;;;;16.13;100.00;101577.47;10360303;28;20055;-82
2023/05/11 10:44:22;;;;;;;19.02;14.40;;;;;;;16.27;100.00;101579.91;10357349;28;20038;-82
2023/05/11 10:49:25;;;;;;;17.55;13.48;;;;;;;16.26;100.00;101582.84;10357290;28;20025;-82
2023/05/11 10:54:50;;;;;;;16.83;11.40;;;;;;;16.37;100.00;101581.31;10379080;28;20041;-81
2023/05/11 11:00:08;;;;;;;20.77;10.93;;;;;;;16.39;100.00;101585.50;10353779;28;20056;-82
2023/05/11 11:05:12;;;;;;;14.32;11.38;;;;;;;16.31;100.00;101579.47;10375659;28;20124;-82
2023/05/11 11:10:13;;;;;;;17.73;11.50;;;;;;;15.84;100.00;101585.16;10350375;28;20034;-81
2023/05/11 11:15:13;;;;;;;16.92;10.98;;;;;;;15.54;100.00;101596.56;10348368;28;20195;-82
2023/05/11 11:20:36;;;;;;;19.92;13.25;;;;;;;15.33;100.00;101591.34;10332781;28;20514;-81
2023/05/11 11:25:50;;;;;;;14.60;11.77;;;;;;;15.31;100.00;101596.16;10381927;28;20470;-82
2023/05/11 11:31:23;;;;;;;15.52;9.68;;;;;;;15.29;100.00;101601.84;10363442;28;20398;-83
2023/05/11 11:36:54;;;;;;;9.80;8.02;;;;;;;15.29;100.00;101603.72;10386850;28;20030;-81
2023/05/11 11:42:14;;;;;;;10.73;6.68;;;;;;;15.13;100.00;101607.72;10364118;28;20030;-81
2023/05/11 11:47:21;;;;;;;9.88;6.72;;;;;;;15.15;100.00;101607.50;10346350;28;20038;-83
2023/05/11 11:52:30;;;;;;;7.55;6.10;;;;;;;15.20;100.00;101602.28;10347913;28;20069;-83
2023/05/11 11:57:49;;;;;;;17.02;8.25;;;;;;;15.27;100.00;101608.56;10378938;28;20031;-82
2023/05/11 12:02:50;;;;;;;7.60;5.28;;;;;;;15.25;100.00;101608.78;10378324;28;20065;-83
2023/05/11 12:07:51;;;;;;;10.73;5.72;;;;;;;15.23;100.00;101605.41;10344164;28;20510;-82
2023/05/11 12:12:53;;;;;;;10.90;6.45;;;;;;;15.37;100.00;101611.69;10361348;28;20033;-81
2023/05/11 12:17:54;;;;;;;10.35;7.50;;;;;;;15.46;100.00;101610.41;10360574;28;20060;-82
2023/05/11 12:22:55;;;;;;;12.57;8.70;;;;;;;15.93;100.00;101607.59;10344913;28;20036;-81
2023/05/11 12:28:02;;;;;;;15.68;8.93;;;;;;;16.48;100.00;101607.97;10347270;28;20129;-82
2023/05/11 12:33:06;;;;;;;12.25;9.95;;;;;;;16.43;100.00;101597.69;10347099;28;20038;-83
2023/05/11 12:38:09;;;;;;;11.10;8.85;;;;;;;16.52;100.00;101596.34;10345205;28;20084;-83
2023/05/11 12:43:15;;;;;;;13.40;8.95;;;;;;;16.62;100.00;101586.84;10341382;28;20026;-83
2023/05/11 12:48:16;;;;;;;12.57;7.97;;;;;;;16.76;100.00;101580.25;10345456;28;20041;-83
2023/05/11 12:53:17;;;;;;;11.05;7.70;;;;;;;16.91;100.00;101585.38;10360158;28;20110;-84
2023/05/11 12:58:18;;;;;;;9.73;8.55;;;;;;;17.06;100.00;101579.59;10344003;28;20034;-83
2023/05/11 13:03:37;;;;;;;13.77;8.82;;;;;;;17.15;100.00;101587.28;10359828;28;20507;-82
2023/05/11 13:08:42;;;;;;;8.35;7.25;;;;;;;17.21;100.00;101585.56;10344891;28;20076;-82
2023/05/11 13:13:43;;;;;;;10.88;9.20;;;;;;;17.27;100.00;101578.34;10369720;28;20025;-81
2023/05/11 13:19:01;;;;;;;11.20;8.95;;;;;;;17.15;100.00;101590.03;10358633;28;20038;-82
2023/05/11 13:24:02;;;;;;;10.57;7.93;;;;;;;17.22;100.00;101594.59;10345478;28;20096;-82
2023/05/11 13:29:04;;;;;;;12.85;8.77;;;;;;;17.41;100.00;101594.41;10344592;28;20492;-82
2023/05/11 13:34:04;;;;;;;15.00;9.02;;;;;;;18.11;100.00;101596.78;10344406;28;20132;-82
2023/05/11 13:39:05;;;;;;;14.45;11.50;;;;;;;18.66;100.00;101587.56;10377800;28;20457;-81
2023/05/11 13:44:05;;;;;;;18.23;11.48;;;;;;;18.63;100.00;101585.31;10367979;28;20053;-81
2023/05/11 13:49:07;;;;;;;14.63;11.50;;;;;;;18.77;100.00;101588.72;10359820;28;20081;-81
2023/05/11 13:54:07;;;;;;;18.17;11.45;;;;;;;18.53;100.00;101587.78;10341681;28;20412;-81
2023/05/11 13:59:08;;;;;;;16.08;11.07;;;;;;;18.48;100.00;101591.25;10345514;28;20176;-81
2023/05/11 14:04:08;;;;;;;11.32;8.15;;;;;;;18.46;100.00;101600.75;10357427;28;20458;-81
2023/05/11 14:09:09;;;;;;;12.25;9.25;;;;;;;18.21;100.00;101598.97;10357338;28;20030;-81
2023/05/11 14:14:11;;;;;;;12.85;8.02;;;;;;;18.11;100.00;101595.97;10374759;28;20038;-81
2023/05/11 14:19:11;;;;;;;9.68;7.35;;;;;;;18.24;100.00;101592.22;10373595;28;20030;-81
2023/05/11 14:24:11;;;;;;;14.65;8.98;;;;;;;18.38;100.00;101595.59;10374484;28;20057;-81
2023/05/11 14:29:12;;;;;;;13.80;9.77;;;;;;;18.28;100.00;101597.00;10340454;28;20038;-81
2023/05/11 14:34:12;;;;;;;10.07;8.60;;;;;;;18.26;100.00;101599.13;10339933;28;20091;-81
2023/05/11 14:39:13;;;;;;;11.05;8.05;;;;;;;17.96;100.00;101592.78;10356341;28;20129;-81
2023/05/11 14:44:13;;;;;;;10.60;7.75;;;;;;;17.79;100.00;101587.91;10326179;28;20065;-81
2023/05/11 14:49:14;;;;;;;7.45;4.53;;;;;;;17.96;100.00;101592.78;10346865;28;20073;-81
2023/05/11 14:54:14;;;;;;;7.85;5.75;;;;;;;17.98;100.00;101598.88;10358279;28;20041;-81
2023/05/11 14:59:15;;;;;;;10.35;6.63;;;;;;;17.92;100.00;101608.00;10374277;28;20061;-81
2023/05/11 15:04:18;;;;;;;6.35;5.45;;;;;;;17.88;100.00;101596.69;10339113;28;20044;-81
2023/05/11 15:09:22;;;;;;;8.85;5.53;;;;;;;17.76;100.00;101606.69;10324533;28;20447;-81
2023/05/11 15:14:23;;;;;;;10.32;5.85;;;;;;;17.66;100.00;101604.47;10326192;28;20058;-81
2023/05/11 15:19:23;;;;;;;6.45;4.65;;;;;;;17.69;100.00;101597.72;10342965;28;20052;-81
2023/05/11 15:24:24;;;;;;;9.35;5.03;;;;;;;17.96;100.00;101609.22;10323596;28;20049;-81
2023/05/11 15:29:24;;;;;;;6.75;5.32;;;;;;;17.66;100.00;101599.84;10323185;28;20462;-80
2023/05/11 15:34:26;;;;;;;11.52;5.38;;;;;;;17.41;100.00;101605.34;10355414;28;20271;-81
2023/05/11 15:39:27;;;;;;;5.65;4.28;;;;;;;17.25;100.00;101605.94;10356247;28;20057;-81
2023/05/11 15:44:28;;;;;;;7.80;4.85;;;;;;;17.04;100.00;101609.91;10380069;28;20117;-80
2023/05/11 15:49:29;;;;;;;4.15;3.72;;;;;;;17.05;100.00;101610.75;10364942;28;20033;-80
2023/05/11 15:54:29;;;;;;;7.47;4.82;;;;;;;17.05;100.00;101606.13;10351155;28;20088;-80
2023/05/11 15:59:31;;;;;;;9.75;5.10;;;;;;;16.89;100.00;101609.41;10331197;28;20030;-80
2023/05/11 16:04:31;;;;;;;7.35;5.00;;;;;;;16.71;100.00;101601.91;10362354;28;20113;-81
2023/05/11 16:09:32;;;;;;;7.50;4.93;;;;;;;16.61;100.00;101601.56;10347182;28;20125;-81
2023/05/11 16:14:32;;;;;;;8.52;4.85;;;;;;;16.56;100.00;101598.66;10345597;28;20033;-80
2023/05/11 16:19:33;;;;;;;6.13;5.32;;;;;;;16.42;100.00;101606.94;10345087;28;20042;-80
2023/05/11 16:24:34;;;;;;;8.40;5.30;;;;;;;16.40;100.00;101603.59;10345503;28;20557;-80
2023/05/11 16:29:36;;;;;;;6.90;5.88;;;;;;;16.28;100.00;101606.19;10378513;28;20040;-80
2023/05/11 16:34:36;;;;;;;12.15;4.75;;;;;;;16.11;100.00;101604.16;10378343;28;20528;-80
2023/05/11 16:39:37;;;;;;;4.65;4.18;;;;;;;15.99;100.00;101598.53;10343803;28;20084;-80
2023/05/11 16:44:38;;;;;;;4.75;3.67;;;;;;;16.03;100.00;101600.63;10343636;28;20049;-80
2023/05/11 16:49:38;;;;;;;5.28;3.88;;;;;;;16.01;100.00;101599.97;10344859;28;20117;-80
2023/05/11 16:54:38;;;;;;;5.15;4.60;;;;;;;15.97;100.00;101592.44;10379809;28;20072;-80
2023/05/11 16:59:39;;;;;;;4.50;4.10;;;;;;;16.00;100.00;101590.13;10360793;28;20065;-80
2023/05/11 17:04:39;;;;;;;5.38;4.40;;;;;;;15.92;100.00;101604.03;10359731;28;20076;-80
2023/05/11 17:09:40;;;;;;;9.90;4.75;;;;;;;15.87;100.00;101608.47;10377503;28;20474;-80
2023/05/11 17:14:41;;;;;;;3.28;3.08;;;;;;;15.80;100.00;101612.06;10359320;28;20030;-80
2023/05/11 17:19:41;;;;;;;3.97;3.58;;;;;;;15.63;100.00;101609.97;10342709;28;20034;-80
2023/05/11 17:24:43;;;;;;;4.45;4.07;;;;;;;15.57;100.00;101620.69;10343668;28;20109;-80
2023/05/11 17:29:43;;;;;;;7.03;3.67;;;;;;;15.49;100.00;101623.63;10343070;28;20100;-80
2023/05/11 17:34:44;;;;;;;4.15;3.75;;;;;;;15.46;100.00;101613.13;10376257;28;20445;-80
2023/05/11 17:39:44;;;;;;;5.13;4.72;;;;;;;15.31;100.00;101620.72;10341712;28;20044;-80
2023/05/11 17:44:45;;;;;;;4.93;4.15;;;;;;;15.20;100.00;101621.38;10358051;28;20077;-80
2023/05/11 17:49:45;;;;;;;7.15;5.68;;;;;;;15.09;100.00;101617.34;10341694;28;20440;-80
2023/05/11 17:54:46;;;;;;;12.65;5.90;;;;;;;15.02;100.00;101621.97;10357899;28;20393;-80
2023/05/11 17:59:46;;;;;;;8.52;6.18;;;;;;;14.94;100.00;101624.94;10375009;28;20129;-79
2023/05/11 18:04:47;;;;;;;8.38;7.05;;;;;;;14.80;100.00;101626.78;10375937;28;20042;-80
2023/05/11 18:09:48;;;;;;;10.15;7.80;;;;;;;14.71;100.00;101631.63;10325548;28;20469;-79
2023/05/11 18:14:49;;;;;;;6.80;6.10;;;;;;;14.62;100.00;101630.13;10357902;28;20041;-80
2023/05/11 18:19:49;;;;;;;13.90;9.00;;;;;;;14.56;100.00;101642.69;10357015;28;20347;-79
2023/05/11 18:24:50;;;;;;;8.95;7.20;;;;;;;14.55;100.00;101651.91;10340977;28;20146;-79
2023/05/11 18:29:52;;;;;;;7.53;6.50;;;;;;;14.51;100.00;101641.63;10343914;28;20033;-79
2023/05/11 18:34:52;;;;;;;10.80;7.85;;;;;;;14.45;100.00;101645.97;10356579;28;20029;-79
2023/05/11 18:39:53;;;;;;;14.13;7.10;;;;;;;14.36;100.00;101647.22;10356722;28;20026;-79
2023/05/11 18:44:54;;;;;;;13.23;7.28;;;;;;;14.27;100.00;101648.44;10357004;28;20048;-79
2023/05/11 18:49:56;;;;;;;11.30;7.85;;;;;;;14.21;100.00;101657.44;10356416;28;20038;-80
2023/05/11 18:54:57;;;;;;;8.93;7.07;;;;;;;14.18;100.00;101655.94;10374005;28;20037;-81
2023/05/11 18:59:57;;;;;;;7.38;6.75;;;;;;;14.10;100.00;101659.69;10357057;28;20473;-80
2023/05/11 19:04:58;;;;;;;15.40;7.75;;;;;;;13.99;100.00;101660.25;10356589;28;20057;-79
2023/05/11 19:09:59;;;;;;;7.97;7.18;;;;;;;13.91;100.00;101660.41;10340344;28;20057;-79
2023/05/11 19:14:59;;;;;;;11.75;8.23;;;;;;;13.79;100.00;101667.47;10345820;28;20041;-80
2023/05/11 19:20:00;;;;;;;10.27;8.35;;;;;;;13.68;100.00;101677.00;10347311;28;20072;-80
2023/05/11 19:25:00;;;;;;;10.30;7.57;;;;;;;13.62;100.00;101675.91;10362846;28;20061;-80
2023/05/11 19:30:02;;;;;;;8.32;6.72;;;;;;;13.64;100.00;101681.19;10347400;28;20034;-80
2023/05/11 19:35:03;;;;;;;8.30;7.32;;;;;;;13.63;100.00;101679.50;10366036;28;20064;-78
2023/05/11 19:40:04;;;;;;;7.82;7.05;;;;;;;13.59;100.00;101681.78;10363101;28;20141;-80
2023/05/11 19:45:05;;;;;;;8.20;7.30;;;;;;;13.50;100.00;101682.97;10362422;28;20113;-80
2023/05/11 19:50:07;;;;;;;10.50;7.57;;;;;;;13.42;100.00;101694.81;10362031;28;20073;-80
2023/05/11 19:55:08;;;;;;;10.35;7.88;;;;;;;13.40;100.00;101701.50;10362124;28;20046;-80
2023/05/11 20:00:08;;;;;;;9.75;8.48;;;;;;;13.38;100.00;101703.59;10361886;28;20509;-80
2023/05/11 20:05:09;;;;;;;9.43;7.28;;;;;;;13.40;100.00;101706.94;10347312;28;20064;-82
2023/05/11 20:10:10;;;;;;;14.40;9.38;;;;;;;13.43;100.00;101712.84;10382661;28;20068;-80
2023/05/11 20:15:11;;;;;;;19.00;10.77;;;;;;;13.50;100.00;101718.34;10362150;28;20037;-80
2023/05/11 20:20:11;;;;;;;16.95;11.40;;;;;;;13.53;100.00;101717.09;10361333;28;20034;-80
2023/05/11 20:25:12;;;;;;;13.60;9.80;;;;;;;13.56;100.00;101720.28;10344922;28;20057;-80
2023/05/11 20:30:13;;;;;;;13.35;8.98;;;;;;;13.59;100.00;101710.84;10363858;28;20034;-80
2023/05/11 20:35:13;;;;;;;11.57;10.25;;;;;;;13.60;100.00;101718.84;10361320;28;20042;-83
2023/05/11 20:40:14;;;;;;;19.42;11.32;;;;;;;13.64;100.00;101717.41;10360335;28;20041;-80
2023/05/11 20:45:21;;;;;;;16.20;12.00;;;;;;;13.65;100.00;101718.22;10377817;28;20117;-80
2023/05/11 20:50:22;;;;;;;15.73;11.35;;;;;;;13.65;100.00;101715.50;10378343;28;20049;-81
2023/05/11 20:55:22;;;;;;;16.90;12.45;;;;;;;13.67;100.00;101713.44;10377426;28;20125;-81
2023/05/11 21:00:23;;;;;;;17.98;13.13;;;;;;;13.67;100.00;101713.44;10343197;28;20053;-80
2023/05/11 21:05:23;;;;;;;17.33;13.23;;;;;;;13.64;100.00;101709.22;10359594;28;20133;-81
2023/05/11 21:10:24;;;;;;;15.15;12.52;;;;;;;13.64;100.00;101724.72;10360740;28;20038;-80
2023/05/11 21:15:24;;;;;;;17.00;13.45;;;;;;;13.61;100.00;101725.97;10383165;28;20061;-85
2023/05/11 21:20:24;;;;;;;20.05;11.88;;;;;;;13.60;100.00;101729.72;10377195;28;20066;-82
2023/05/11 21:25:25;;;;;;;14.52;12.95;;;;;;;13.58;100.00;101731.78;10360187;28;20068;-82
2023/05/11 21:30:25;;;;;;;14.23;11.85;;;;;;;13.55;100.00;101736.78;10342958;28;20049;-82
2023/05/11 21:35:26;;;;;;;19.25;12.43;;;;;;;13.54;100.00;101738.69;10375789;28;20049;-82
2023/05/11 21:40:26;;;;;;;13.80;12.20;;;;;;;13.54;100.00;101735.97;10378267;28;20030;-81
2023/05/11 21:45:27;;;;;;;14.02;12.45;;;;;;;13.51;100.00;101730.91;10348545;28;20046;-81
2023/05/11 21:50:27;;;;;;;16.35;12.57;;;;;;;13.51;100.00;101738.22;10347811;28;20026;-82
2023/05/11 21:55:27;;;;;;;13.70;11.65;;;;;;;13.51;100.00;101735.50;10359704;28;20038;-83
2023/05/11 22:00:28;;;;;;;14.50;12.20;;;;;;;13.49;100.00;101733.81;10360262;28;20037;-83
2023/05/11 22:05:28;;;;;;;13.10;10.70;;;;;;;13.52;100.00;101743.47;10359558;28;20036;-82
2023/05/11 22:10:29;;;;;;;14.18;11.77;;;;;;;13.45;100.00;101743.41;10373532;28;20030;-84
2023/05/11 22:15:29;;;;;;;14.93;11.15;;;;;;;13.44;100.00;101747.19;10342242;28;20351;-82
2023/05/11 22:20:30;;;;;;;15.68;14.02;;;;;;;13.37;100.00;101749.00;10379497;28;20038;-83
2023/05/11 22:25:32;;;;;;;9.48;8.25;;;;;;;13.31;100.00;101757.09;10357214;28;20057;-82
2023/05/11 22:30:32;;;;;;;11.80;10.02;;;;;;;13.24;100.00;101751.53;10373911;28;20533;-83
2023/05/11 22:35:33;;;;;;;9.52;8.55;;;;;;;13.19;100.00;101751.31;10340275;28;20057;-84